| time (UTC) | temp C | wind direction | speed KPH | gust KPH | rain 1hr cm | rain 24hr cm | rain mn cm | humidity % | barometer mb |
| 20260502130336 | -5 | 347 | 3.2 | 0.0 | 0.00 | 0.00 | 0.00 | 79 | 1023.9 |
| 20260502123329 | -6 | 11 | 0.0 | 0.0 | 0.00 | 0.00 | 0.00 | 80 | 1023.6 |
| 20260502120323 | -6 | 360 | 1.6 | 0.0 | 0.00 | 0.00 | 0.00 | 77 | 1023.8 |
| 20260502113336 | -4 | 342 | 1.6 | 0.0 | 0.00 | 0.00 | 0.00 | 76 | 1023.1 |
| 20260502110350 | -5 | 10 | 6.4 | 0.0 | 0.00 | 0.00 | 0.00 | 78 | 1023.2 |
| 20260502103322 | -6 | 28 | 4.8 | 0.0 | 0.00 | 0.00 | 0.00 | 79 | 1024.1 |
| 20260502100336 | -6 | 13 | 3.2 | 0.0 | 0.00 | 0.00 | 0.00 | 78 | 1024.0 |
| 20260502090324 | -1 | 243 | 0.0 | 0.0 | 0.00 | 0.00 | 0.00 | 59 | 1023.5 |
| 20260502070335 | 0 | 57 | 0.0 | 0.0 | 0.00 | 0.00 | 0.00 | 59 | 1023.2 |
| 20260502063328 | 1 | 62 | 1.6 | 0.0 | 0.00 | 0.00 | 0.00 | 54 | 1023.3 |
| 20260502060320 | 1 | 51 | 3.2 | 0.0 | 0.00 | 0.00 | 0.00 | 53 | 1022.9 |
| 20260502053334 | 1 | 61 | 1.6 | 0.0 | 0.00 | 0.00 | 0.00 | 50 | 1022.9 |
| 20260502050328 | 0 | 32 | 9.7 | 0.0 | 0.00 | 0.00 | 0.00 | 52 | 1022.7 |
| 20260502043321 | 0 | 56 | 3.2 | 0.0 | 0.00 | 0.00 | 0.00 | 52 | 1022.5 |
| 20260502040331 | 1 | 355 | 0.0 | 0.0 | 0.00 | 0.00 | 0.00 | 52 | 1022.2 |
| 20260502033345 | 2 | 345 | 4.8 | 0.0 | 0.00 | 0.00 | 0.00 | 46 | 1021.7 |
| 20260502030318 | 6 | 292 | 4.8 | 0.0 | 0.00 | 0.00 | 0.00 | 37 | 1021.3 |
| 20260502023331 | 8 | 297 | 8.0 | 0.0 | 0.00 | 0.00 | 0.00 | 32 | 1021.4 |
| 20260502020324 | 11 | 313 | 6.4 | 0.0 | 0.00 | 0.00 | 0.00 | 26 | 1020.6 |
| 20260502013318 | 12 | 287 | 9.7 | 0.0 | 0.00 | 0.00 | 0.00 | 25 | 1020.6 |
| 20260502010332 | 13 | 296 | 8.0 | 0.0 | 0.00 | 0.00 | 0.00 | 23 | 1020.0 |
| 20260502003326 | 13 | 287 | 6.4 | 0.0 | 0.00 | 0.00 | 0.00 | 22 | 1020.1 |
| 20260502000320 | 14 | 360 | 1.6 | 0.0 | 0.00 | 0.00 | 0.00 | 22 | 1020.3 |
| 20260501233332 | 13 | 309 | 4.8 | 0.0 | 0.00 | 0.00 | 0.00 | 22 | 1020.3 |
| 20260501230325 | 13 | 249 | 8.0 | 0.0 | 0.00 | 0.00 | 0.00 | 24 | 1020.2 |
| 20260501223339 | 13 | 257 | 6.4 | 0.0 | 0.00 | 0.00 | 0.00 | 25 | 1020.3 |
| 20260501220329 | 13 | 132 | 3.2 | 0.0 | 0.00 | 0.00 | 0.00 | 24 | 1020.5 |
| 20260501213323 | 13 | 113 | 9.7 | 0.0 | 0.00 | 0.00 | 0.00 | 19 | 1021.0 |
| 20260501210318 | 12 | 113 | 8.0 | 0.0 | 0.00 | 0.00 | 0.00 | 21 | 1020.9 |
| 20260501203330 | 12 | 24 | 9.7 | 0.0 | 0.00 | 0.00 | 0.00 | 18 | 1021.2 |
| 20260501200325 | 12 | 265 | 3.2 | 0.0 | 0.00 | 0.00 | 0.00 | 25 | 1020.9 |
| 20260501193317 | 11 | 61 | 6.4 | 0.0 | 0.00 | 0.00 | 0.00 | 26 | 1021.8 |
| 20260501190331 | 10 | 233 | 6.4 | 0.0 | 0.00 | 0.00 | 0.00 | 34 | 1021.8 |
| 20260501183325 | 10 | 325 | 6.4 | 0.0 | 0.00 | 0.00 | 0.00 | 33 | 1022.0 |
| 20260501180318 | 8 | 266 | 8.0 | 0.0 | 0.00 | 0.00 | 0.00 | 38 | 1022.0 |
| 20260501173331 | 8 | 219 | 4.8 | 0.0 | 0.00 | 0.00 | 0.00 | 38 | 1022.2 |
| 20260501170325 | 7 | 312 | 3.2 | 0.0 | 0.00 | 0.00 | 0.00 | 44 | 1022.1 |
| 20260501163318 | 6 | 284 | 6.4 | 0.0 | 0.00 | 0.00 | 0.00 | 48 | 1022.7 |
| 20260501160331 | 6 | 314 | 8.0 | 0.0 | 0.00 | 0.00 | 0.00 | 51 | 1022.2 |
| 20260501153325 | 5 | 323 | 4.8 | 0.0 | 0.00 | 0.00 | 0.00 | 54 | 1022.9 |
| 20260501150319 | 3 | 17 | 8.0 | 0.0 | 0.00 | 0.00 | 0.00 | 71 | 1022.8 |
| 20260501143332 | 0 | 322 | 11.3 | 0.0 | 0.00 | 0.00 | 0.00 | 81 | 1022.4 |